sensor_id;sensor_type;location;lat;lon;timestamp;P1;durP1;ratioP1;P2;durP2;ratioP2
24650;SDS011;12783;48.824;8.662;2022-07-23T00:01:10;3.70;;;3.40;;
24650;SDS011;12783;48.824;8.662;2022-07-23T00:03:37;9.05;;;3.70;;
24650;SDS011;12783;48.824;8.662;2022-07-23T00:06:04;7.32;;;3.53;;
24650;SDS011;12783;48.824;8.662;2022-07-23T00:08:35;7.43;;;3.83;;
24650;SDS011;12783;48.824;8.662;2022-07-23T00:11:02;4.70;;;3.60;;
24650;SDS011;12783;48.824;8.662;2022-07-23T00:13:29;5.00;;;3.50;;
24650;SDS011;12783;48.824;8.662;2022-07-23T00:15:55;6.07;;;4.10;;
24650;SDS011;12783;48.824;8.662;2022-07-23T00:18:22;5.95;;;4.00;;
24650;SDS011;12783;48.824;8.662;2022-07-23T00:20:49;4.95;;;3.13;;
24650;SDS011;12783;48.824;8.662;2022-07-23T00:23:17;6.45;;;3.70;;
24650;SDS011;12783;48.824;8.662;2022-07-23T00:25:44;6.25;;;3.90;;
24650;SDS011;12783;48.824;8.662;2022-07-23T00:28:11;4.60;;;3.80;;
24650;SDS011;12783;48.824;8.662;2022-07-23T00:30:38;4.05;;;3.65;;
24650;SDS011;12783;48.824;8.662;2022-07-23T00:33:06;6.13;;;4.05;;
24650;SDS011;12783;48.824;8.662;2022-07-23T00:35:34;4.13;;;3.50;;
24650;SDS011;12783;48.824;8.662;2022-07-23T00:38:07;4.35;;;3.75;;
24650;SDS011;12783;48.824;8.662;2022-07-23T00:40:36;5.95;;;3.50;;
24650;SDS011;12783;48.824;8.662;2022-07-23T00:43:05;6.53;;;4.00;;
24650;SDS011;12783;48.824;8.662;2022-07-23T00:45:32;6.22;;;3.90;;
24650;SDS011;12783;48.824;8.662;2022-07-23T00:47:59;5.22;;;4.30;;
24650;SDS011;12783;48.824;8.662;2022-07-23T00:50:26;6.47;;;3.88;;
24650;SDS011;12783;48.824;8.662;2022-07-23T00:52:53;4.97;;;3.97;;
24650;SDS011;12783;48.824;8.662;2022-07-23T00:55:21;6.57;;;4.13;;
24650;SDS011;12783;48.824;8.662;2022-07-23T00:57:48;6.45;;;3.95;;
24650;SDS011;12783;48.824;8.662;2022-07-23T01:00:18;6.18;;;4.47;;
24650;SDS011;12783;48.824;8.662;2022-07-23T01:02:45;6.50;;;4.60;;
24650;SDS011;12783;48.824;8.662;2022-07-23T01:05:14;6.05;;;4.78;;
24650;SDS011;12783;48.824;8.662;2022-07-23T01:07:41;9.05;;;5.05;;
24650;SDS011;12783;48.824;8.662;2022-07-23T01:10:09;6.20;;;4.35;;
24650;SDS011;12783;48.824;8.662;2022-07-23T01:12:55;5.65;;;4.47;;
24650;SDS011;12783;48.824;8.662;2022-07-23T01:15:22;8.00;;;4.47;;
24650;SDS011;12783;48.824;8.662;2022-07-23T01:17:49;6.30;;;4.85;;
24650;SDS011;12783;48.824;8.662;2022-07-23T01:20:17;6.40;;;4.75;;
24650;SDS011;12783;48.824;8.662;2022-07-23T01:22:44;5.70;;;5.13;;
24650;SDS011;12783;48.824;8.662;2022-07-23T01:25:11;7.30;;;4.65;;
24650;SDS011;12783;48.824;8.662;2022-07-23T01:27:38;7.57;;;4.72;;
24650;SDS011;12783;48.824;8.662;2022-07-23T01:30:05;5.30;;;4.80;;
24650;SDS011;12783;48.824;8.662;2022-07-23T01:32:33;7.80;;;4.57;;
24650;SDS011;12783;48.824;8.662;2022-07-23T01:35:00;4.88;;;4.38;;
24650;SDS011;12783;48.824;8.662;2022-07-23T01:37:27;7.30;;;4.80;;
24650;SDS011;12783;48.824;8.662;2022-07-23T01:39:54;7.75;;;5.30;;
24650;SDS011;12783;48.824;8.662;2022-07-23T01:42:21;8.27;;;4.78;;
24650;SDS011;12783;48.824;8.662;2022-07-23T01:44:48;6.70;;;5.05;;
24650;SDS011;12783;48.824;8.662;2022-07-23T01:47:15;7.78;;;5.13;;
24650;SDS011;12783;48.824;8.662;2022-07-23T01:49:42;7.05;;;5.57;;
24650;SDS011;12783;48.824;8.662;2022-07-23T01:52:09;6.38;;;5.32;;
24650;SDS011;12783;48.824;8.662;2022-07-23T01:54:37;7.55;;;5.20;;
24650;SDS011;12783;48.824;8.662;2022-07-23T01:57:05;11.20;;;5.00;;
24650;SDS011;12783;48.824;8.662;2022-07-23T01:59:34;6.85;;;5.35;;
24650;SDS011;12783;48.824;8.662;2022-07-23T02:02:01;6.53;;;4.95;;
24650;SDS011;12783;48.824;8.662;2022-07-23T02:04:30;7.05;;;5.00;;
24650;SDS011;12783;48.824;8.662;2022-07-23T02:06:57;7.38;;;5.30;;
24650;SDS011;12783;48.824;8.662;2022-07-23T02:09:23;6.75;;;4.82;;
24650;SDS011;12783;48.824;8.662;2022-07-23T02:11:50;6.85;;;5.22;;
24650;SDS011;12783;48.824;8.662;2022-07-23T02:14:17;7.63;;;5.20;;
24650;SDS011;12783;48.824;8.662;2022-07-23T02:16:44;12.68;;;5.53;;
24650;SDS011;12783;48.824;8.662;2022-07-23T02:19:11;11.98;;;6.47;;
24650;SDS011;12783;48.824;8.662;2022-07-23T02:21:38;7.28;;;4.90;;
24650;SDS011;12783;48.824;8.662;2022-07-23T02:24:05;6.22;;;4.90;;
24650;SDS011;12783;48.824;8.662;2022-07-23T02:26:32;6.47;;;4.40;;
24650;SDS011;12783;48.824;8.662;2022-07-23T02:29:01;5.10;;;4.00;;
24650;SDS011;12783;48.824;8.662;2022-07-23T02:31:30;5.90;;;4.47;;
24650;SDS011;12783;48.824;8.662;2022-07-23T02:33:57;4.82;;;4.03;;
24650;SDS011;12783;48.824;8.662;2022-07-23T02:36:24;7.05;;;4.15;;
24650;SDS011;12783;48.824;8.662;2022-07-23T02:38:51;7.10;;;4.45;;
24650;SDS011;12783;48.824;8.662;2022-07-23T02:41:18;4.40;;;3.72;;
24650;SDS011;12783;48.824;8.662;2022-07-23T02:43:45;5.53;;;3.53;;
24650;SDS011;12783;48.824;8.662;2022-07-23T02:46:12;4.10;;;3.70;;
24650;SDS011;12783;48.824;8.662;2022-07-23T02:48:39;4.63;;;3.50;;
24650;SDS011;12783;48.824;8.662;2022-07-23T02:51:06;4.78;;;3.78;;
24650;SDS011;12783;48.824;8.662;2022-07-23T02:53:40;5.50;;;3.65;;
24650;SDS011;12783;48.824;8.662;2022-07-23T02:56:07;10.30;;;3.33;;
24650;SDS011;12783;48.824;8.662;2022-07-23T02:58:34;3.63;;;3.20;;
24650;SDS011;12783;48.824;8.662;2022-07-23T03:01:01;4.07;;;3.30;;
24650;SDS011;12783;48.824;8.662;2022-07-23T03:03:28;4.45;;;3.08;;
24650;SDS011;12783;48.824;8.662;2022-07-23T03:05:55;4.70;;;3.53;;
24650;SDS011;12783;48.824;8.662;2022-07-23T03:08:23;4.72;;;3.45;;
24650;SDS011;12783;48.824;8.662;2022-07-23T03:10:50;6.88;;;3.55;;
24650;SDS011;12783;48.824;8.662;2022-07-23T03:13:17;4.10;;;3.45;;
24650;SDS011;12783;48.824;8.662;2022-07-23T03:15:44;5.10;;;3.28;;
24650;SDS011;12783;48.824;8.662;2022-07-23T03:18:10;5.38;;;3.60;;
24650;SDS011;12783;48.824;8.662;2022-07-23T03:20:37;4.70;;;3.50;;
24650;SDS011;12783;48.824;8.662;2022-07-23T03:23:04;4.35;;;3.72;;
24650;SDS011;12783;48.824;8.662;2022-07-23T03:25:31;5.10;;;3.40;;
24650;SDS011;12783;48.824;8.662;2022-07-23T03:27:58;5.45;;;3.50;;
24650;SDS011;12783;48.824;8.662;2022-07-23T03:30:25;4.35;;;3.33;;
24650;SDS011;12783;48.824;8.662;2022-07-23T03:32:52;4.47;;;3.40;;
24650;SDS011;12783;48.824;8.662;2022-07-23T03:35:19;5.85;;;3.40;;
24650;SDS011;12783;48.824;8.662;2022-07-23T03:37:45;3.53;;;3.22;;
24650;SDS011;12783;48.824;8.662;2022-07-23T03:40:13;3.95;;;3.30;;
24650;SDS011;12783;48.824;8.662;2022-07-23T03:42:40;4.47;;;3.70;;
24650;SDS011;12783;48.824;8.662;2022-07-23T03:45:08;4.25;;;2.88;;
24650;SDS011;12783;48.824;8.662;2022-07-23T03:47:36;4.05;;;3.15;;
24650;SDS011;12783;48.824;8.662;2022-07-23T03:50:03;4.45;;;3.50;;
24650;SDS011;12783;48.824;8.662;2022-07-23T03:52:30;5.07;;;3.40;;
24650;SDS011;12783;48.824;8.662;2022-07-23T03:54:57;4.13;;;3.20;;
24650;SDS011;12783;48.824;8.662;2022-07-23T03:57:24;4.32;;;3.08;;
24650;SDS011;12783;48.824;8.662;2022-07-23T03:59:51;4.05;;;3.30;;
24650;SDS011;12783;48.824;8.662;2022-07-23T04:02:18;8.23;;;3.55;;
24650;SDS011;12783;48.824;8.662;2022-07-23T04:04:44;4.63;;;3.53;;
24650;SDS011;12783;48.824;8.662;2022-07-23T04:07:12;3.60;;;3.20;;
24650;SDS011;12783;48.824;8.662;2022-07-23T04:09:40;4.93;;;3.20;;
24650;SDS011;12783;48.824;8.662;2022-07-23T04:12:11;5.50;;;3.20;;
24650;SDS011;12783;48.824;8.662;2022-07-23T04:14:38;5.45;;;3.67;;
24650;SDS011;12783;48.824;8.662;2022-07-23T04:17:05;4.97;;;3.10;;
24650;SDS011;12783;48.824;8.662;2022-07-23T04:19:32;5.57;;;3.30;;
24650;SDS011;12783;48.824;8.662;2022-07-23T04:21:59;4.07;;;3.47;;
24650;SDS011;12783;48.824;8.662;2022-07-23T04:24:26;4.43;;;3.67;;
24650;SDS011;12783;48.824;8.662;2022-07-23T04:26:53;3.95;;;3.20;;
24650;SDS011;12783;48.824;8.662;2022-07-23T04:29:19;3.58;;;3.22;;
24650;SDS011;12783;48.824;8.662;2022-07-23T04:31:46;5.15;;;3.42;;
24650;SDS011;12783;48.824;8.662;2022-07-23T04:34:13;4.00;;;3.20;;
24650;SDS011;12783;48.824;8.662;2022-07-23T04:36:40;4.05;;;3.15;;
24650;SDS011;12783;48.824;8.662;2022-07-23T04:39:07;4.32;;;3.25;;
24650;SDS011;12783;48.824;8.662;2022-07-23T04:41:34;6.22;;;3.45;;
24650;SDS011;12783;48.824;8.662;2022-07-23T04:44:01;3.60;;;3.30;;
24650;SDS011;12783;48.824;8.662;2022-07-23T04:46:28;3.80;;;3.08;;
24650;SDS011;12783;48.824;8.662;2022-07-23T04:48:56;3.92;;;3.45;;
24650;SDS011;12783;48.824;8.662;2022-07-23T04:51:24;4.53;;;3.20;;
24650;SDS011;12783;48.824;8.662;2022-07-23T04:53:51;4.47;;;3.20;;
24650;SDS011;12783;48.824;8.662;2022-07-23T04:56:18;4.07;;;3.47;;
24650;SDS011;12783;48.824;8.662;2022-07-23T04:58:45;3.97;;;3.30;;
24650;SDS011;12783;48.824;8.662;2022-07-23T05:01:12;4.30;;;3.42;;
24650;SDS011;12783;48.824;8.662;2022-07-23T05:03:39;4.30;;;3.45;;
24650;SDS011;12783;48.824;8.662;2022-07-23T05:06:06;5.05;;;3.30;;
24650;SDS011;12783;48.824;8.662;2022-07-23T05:08:33;3.47;;;3.17;;
24650;SDS011;12783;48.824;8.662;2022-07-23T05:10:59;6.78;;;3.35;;
24650;SDS011;12783;48.824;8.662;2022-07-23T05:13:26;3.53;;;3.03;;
24650;SDS011;12783;48.824;8.662;2022-07-23T05:15:53;5.63;;;3.25;;
24650;SDS011;12783;48.824;8.662;2022-07-23T05:18:20;5.85;;;3.10;;
24650;SDS011;12783;48.824;8.662;2022-07-23T05:20:47;5.28;;;3.40;;
24650;SDS011;12783;48.824;8.662;2022-07-23T05:23:14;5.38;;;3.70;;
24650;SDS011;12783;48.824;8.662;2022-07-23T05:25:41;4.97;;;4.28;;
24650;SDS011;12783;48.824;8.662;2022-07-23T05:28:08;6.30;;;5.40;;
24650;SDS011;12783;48.824;8.662;2022-07-23T05:30:34;4.40;;;3.60;;
24650;SDS011;12783;48.824;8.662;2022-07-23T05:33:01;6.47;;;4.13;;
24650;SDS011;12783;48.824;8.662;2022-07-23T05:35:28;5.38;;;3.60;;
24650;SDS011;12783;48.824;8.662;2022-07-23T05:37:55;4.75;;;3.90;;
24650;SDS011;12783;48.824;8.662;2022-07-23T05:40:22;4.80;;;3.50;;
24650;SDS011;12783;48.824;8.662;2022-07-23T05:42:49;7.95;;;4.13;;
24650;SDS011;12783;48.824;8.662;2022-07-23T05:45:16;4.13;;;3.72;;
24650;SDS011;12783;48.824;8.662;2022-07-23T05:47:44;5.05;;;3.72;;
24650;SDS011;12783;48.824;8.662;2022-07-23T05:50:15;6.47;;;3.85;;
24650;SDS011;12783;48.824;8.662;2022-07-23T05:52:43;3.97;;;3.53;;
24650;SDS011;12783;48.824;8.662;2022-07-23T05:55:10;4.32;;;3.50;;
24650;SDS011;12783;48.824;8.662;2022-07-23T05:57:39;5.30;;;4.03;;
24650;SDS011;12783;48.824;8.662;2022-07-23T06:00:08;5.15;;;3.65;;
24650;SDS011;12783;48.824;8.662;2022-07-23T06:02:37;5.25;;;3.40;;
24650;SDS011;12783;48.824;8.662;2022-07-23T06:05:05;4.22;;;3.83;;
24650;SDS011;12783;48.824;8.662;2022-07-23T06:07:34;5.55;;;3.72;;
24650;SDS011;12783;48.824;8.662;2022-07-23T06:10:02;4.18;;;3.15;;
24650;SDS011;12783;48.824;8.662;2022-07-23T06:12:30;6.18;;;3.72;;
24650;SDS011;12783;48.824;8.662;2022-07-23T06:14:57;6.07;;;3.55;;
24650;SDS011;12783;48.824;8.662;2022-07-23T06:17:25;5.80;;;3.78;;
24650;SDS011;12783;48.824;8.662;2022-07-23T06:19:53;9.07;;;4.18;;
24650;SDS011;12783;48.824;8.662;2022-07-23T06:22:20;5.82;;;4.20;;
24650;SDS011;12783;48.824;8.662;2022-07-23T06:24:48;5.70;;;4.53;;
24650;SDS011;12783;48.824;8.662;2022-07-23T06:27:18;9.50;;;5.65;;
24650;SDS011;12783;48.824;8.662;2022-07-23T06:29:51;9.13;;;5.22;;
24650;SDS011;12783;48.824;8.662;2022-07-23T06:32:18;5.80;;;4.82;;
24650;SDS011;12783;48.824;8.662;2022-07-23T06:34:45;7.47;;;5.18;;
24650;SDS011;12783;48.824;8.662;2022-07-23T06:37:14;8.50;;;5.25;;
24650;SDS011;12783;48.824;8.662;2022-07-23T06:39:42;6.78;;;5.10;;
24650;SDS011;12783;48.824;8.662;2022-07-23T06:42:10;6.47;;;5.32;;
24650;SDS011;12783;48.824;8.662;2022-07-23T06:44:38;8.27;;;5.30;;
24650;SDS011;12783;48.824;8.662;2022-07-23T06:47:05;6.35;;;5.10;;
24650;SDS011;12783;48.824;8.662;2022-07-23T06:49:32;9.05;;;5.57;;
24650;SDS011;12783;48.824;8.662;2022-07-23T06:51:59;7.80;;;5.25;;
24650;SDS011;12783;48.824;8.662;2022-07-23T06:54:25;9.45;;;5.25;;
24650;SDS011;12783;48.824;8.662;2022-07-23T06:56:52;7.70;;;4.82;;
24650;SDS011;12783;48.824;8.662;2022-07-23T06:59:19;6.93;;;5.30;;
24650;SDS011;12783;48.824;8.662;2022-07-23T07:01:46;8.35;;;5.80;;
24650;SDS011;12783;48.824;8.662;2022-07-23T07:04:13;7.55;;;6.03;;
24650;SDS011;12783;48.824;8.662;2022-07-23T07:06:40;8.25;;;5.88;;
24650;SDS011;12783;48.824;8.662;2022-07-23T07:09:06;9.63;;;5.70;;
24650;SDS011;12783;48.824;8.662;2022-07-23T07:11:33;6.10;;;5.20;;
24650;SDS011;12783;48.824;8.662;2022-07-23T07:14:01;8.77;;;5.15;;
24650;SDS011;12783;48.824;8.662;2022-07-23T07:16:28;6.25;;;5.07;;
24650;SDS011;12783;48.824;8.662;2022-07-23T07:18:58;6.55;;;4.82;;
24650;SDS011;12783;48.824;8.662;2022-07-23T07:21:26;5.60;;;4.90;;
24650;SDS011;12783;48.824;8.662;2022-07-23T07:23:52;6.28;;;5.40;;
24650;SDS011;12783;48.824;8.662;2022-07-23T07:26:19;6.70;;;5.30;;
24650;SDS011;12783;48.824;8.662;2022-07-23T07:28:46;6.25;;;4.75;;
24650;SDS011;12783;48.824;8.662;2022-07-23T07:31:13;7.88;;;4.85;;
24650;SDS011;12783;48.824;8.662;2022-07-23T07:33:41;8.00;;;4.70;;
24650;SDS011;12783;48.824;8.662;2022-07-23T07:36:08;6.45;;;4.57;;
24650;SDS011;12783;48.824;8.662;2022-07-23T07:38:35;6.55;;;4.90;;
24650;SDS011;12783;48.824;8.662;2022-07-23T07:41:02;6.25;;;4.70;;
24650;SDS011;12783;48.824;8.662;2022-07-23T07:43:29;5.13;;;4.28;;
24650;SDS011;12783;48.824;8.662;2022-07-23T07:45:56;5.55;;;4.50;;
24650;SDS011;12783;48.824;8.662;2022-07-23T07:48:23;4.05;;;3.70;;
24650;SDS011;12783;48.824;8.662;2022-07-23T07:50:50;5.53;;;4.20;;
24650;SDS011;12783;48.824;8.662;2022-07-23T07:53:17;4.68;;;4.13;;
24650;SDS011;12783;48.824;8.662;2022-07-23T07:55:45;8.75;;;5.95;;
24650;SDS011;12783;48.824;8.662;2022-07-23T07:58:32;5.13;;;4.35;;
24650;SDS011;12783;48.824;8.662;2022-07-23T08:00:59;6.30;;;5.50;;
24650;SDS011;12783;48.824;8.662;2022-07-23T08:03:26;6.55;;;4.00;;
24650;SDS011;12783;48.824;8.662;2022-07-23T08:05:53;4.43;;;4.03;;
24650;SDS011;12783;48.824;8.662;2022-07-23T08:08:20;7.25;;;3.67;;
24650;SDS011;12783;48.824;8.662;2022-07-23T08:10:47;4.60;;;3.60;;
24650;SDS011;12783;48.824;8.662;2022-07-23T08:13:15;4.63;;;3.75;;
24650;SDS011;12783;48.824;8.662;2022-07-23T08:15:43;3.95;;;3.55;;
24650;SDS011;12783;48.824;8.662;2022-07-23T08:18:12;3.63;;;3.20;;
24650;SDS011;12783;48.824;8.662;2022-07-23T08:20:39;3.72;;;3.30;;
24650;SDS011;12783;48.824;8.662;2022-07-23T08:23:07;4.78;;;3.40;;
24650;SDS011;12783;48.824;8.662;2022-07-23T08:25:39;5.57;;;3.97;;
24650;SDS011;12783;48.824;8.662;2022-07-23T08:28:09;5.05;;;3.72;;
24650;SDS011;12783;48.824;8.662;2022-07-23T08:30:39;4.47;;;3.83;;
24650;SDS011;12783;48.824;8.662;2022-07-23T08:33:09;13.45;;;3.95;;
24650;SDS011;12783;48.824;8.662;2022-07-23T08:35:59;4.38;;;3.50;;
24650;SDS011;12783;48.824;8.662;2022-07-23T08:38:30;4.07;;;3.35;;
24650;SDS011;12783;48.824;8.662;2022-07-23T08:40:58;4.68;;;3.90;;
24650;SDS011;12783;48.824;8.662;2022-07-23T08:43:26;4.05;;;3.65;;
24650;SDS011;12783;48.824;8.662;2022-07-23T08:48:28;5.63;;;3.97;;
24650;SDS011;12783;48.824;8.662;2022-07-23T08:51:02;5.45;;;3.72;;
24650;SDS011;12783;48.824;8.662;2022-07-23T08:53:31;4.97;;;4.00;;
24650;SDS011;12783;48.824;8.662;2022-07-23T08:56:00;6.15;;;4.30;;
24650;SDS011;12783;48.824;8.662;2022-07-23T08:58:29;4.72;;;3.78;;
24650;SDS011;12783;48.824;8.662;2022-07-23T09:00:57;4.50;;;3.78;;
24650;SDS011;12783;48.824;8.662;2022-07-23T09:03:26;5.97;;;3.95;;
24650;SDS011;12783;48.824;8.662;2022-07-23T09:05:58;6.20;;;4.25;;
24650;SDS011;12783;48.824;8.662;2022-07-23T09:08:34;7.05;;;3.80;;
24650;SDS011;12783;48.824;8.662;2022-07-23T09:11:04;4.97;;;4.05;;
24650;SDS011;12783;48.824;8.662;2022-07-23T09:16:18;3.93;;;3.27;;
24650;SDS011;12783;48.824;8.662;2022-07-23T09:18:52;4.30;;;3.90;;
24650;SDS011;12783;48.824;8.662;2022-07-23T09:24:03;6.43;;;3.72;;
24650;SDS011;12783;48.824;8.662;2022-07-23T09:26:42;5.43;;;4.03;;
24650;SDS011;12783;48.824;8.662;2022-07-23T09:29:21;5.25;;;4.20;;
24650;SDS011;12783;48.824;8.662;2022-07-23T09:31:52;6.57;;;4.00;;
24650;SDS011;12783;48.824;8.662;2022-07-23T09:36:49;4.82;;;4.13;;
24650;SDS011;12783;48.824;8.662;2022-07-23T09:39:29;5.80;;;4.43;;
24650;SDS011;12783;48.824;8.662;2022-07-23T09:44:44;4.93;;;4.35;;
24650;SDS011;12783;48.824;8.662;2022-07-23T09:47:14;5.35;;;4.63;;
24650;SDS011;12783;48.824;8.662;2022-07-23T09:52:42;5.70;;;4.25;;
24650;SDS011;12783;48.824;8.662;2022-07-23T09:55:13;6.40;;;4.90;;
24650;SDS011;12783;48.824;8.662;2022-07-23T09:57:42;6.40;;;4.03;;
24650;SDS011;12783;48.824;8.662;2022-07-23T10:00:12;5.90;;;4.30;;
24650;SDS011;12783;48.824;8.662;2022-07-23T10:02:39;6.50;;;4.30;;
24650;SDS011;12783;48.824;8.662;2022-07-23T10:05:07;5.65;;;4.55;;
24650;SDS011;12783;48.824;8.662;2022-07-23T10:07:36;6.25;;;4.32;;
24650;SDS011;12783;48.824;8.662;2022-07-23T10:10:05;6.65;;;4.05;;
24650;SDS011;12783;48.824;8.662;2022-07-23T10:12:34;7.13;;;4.72;;
24650;SDS011;12783;48.824;8.662;2022-07-23T10:15:13;5.05;;;4.15;;
24650;SDS011;12783;48.824;8.662;2022-07-23T10:17:40;5.78;;;4.60;;
24650;SDS011;12783;48.824;8.662;2022-07-23T10:20:07;5.43;;;4.50;;
24650;SDS011;12783;48.824;8.662;2022-07-23T10:22:35;6.43;;;4.78;;
24650;SDS011;12783;48.824;8.662;2022-07-23T10:31:14;6.03;;;4.38;;
24650;SDS011;12783;48.824;8.662;2022-07-23T10:34:25;7.00;;;4.35;;
24650;SDS011;12783;48.824;8.662;2022-07-23T10:37:16;7.38;;;4.88;;
24650;SDS011;12783;48.824;8.662;2022-07-23T10:40:12;5.32;;;4.35;;
24650;SDS011;12783;48.824;8.662;2022-07-23T10:42:48;6.57;;;5.07;;
24650;SDS011;12783;48.824;8.662;2022-07-23T10:45:23;7.85;;;5.13;;
24650;SDS011;12783;48.824;8.662;2022-07-23T10:48:11;5.35;;;4.70;;
24650;SDS011;12783;48.824;8.662;2022-07-23T10:59:22;6.22;;;4.43;;
24650;SDS011;12783;48.824;8.662;2022-07-23T11:01:49;5.28;;;4.40;;
24650;SDS011;12783;48.824;8.662;2022-07-23T11:04:18;5.65;;;4.38;;
24650;SDS011;12783;48.824;8.662;2022-07-23T11:25:28;6.47;;;4.50;;
24650;SDS011;12783;48.824;8.662;2022-07-23T11:28:10;7.22;;;5.15;;
24650;SDS011;12783;48.824;8.662;2022-07-23T11:30:45;5.82;;;4.35;;
24650;SDS011;12783;48.824;8.662;2022-07-23T11:35:41;9.43;;;4.38;;
24650;SDS011;12783;48.824;8.662;2022-07-23T11:38:18;5.47;;;4.67;;
24650;SDS011;12783;48.824;8.662;2022-07-23T11:40:51;7.07;;;4.57;;
24650;SDS011;12783;48.824;8.662;2022-07-23T11:43:21;8.30;;;4.40;;
24650;SDS011;12783;48.824;8.662;2022-07-23T11:45:51;8.40;;;4.80;;
24650;SDS011;12783;48.824;8.662;2022-07-23T11:48:24;5.57;;;4.30;;
24650;SDS011;12783;48.824;8.662;2022-07-23T11:50:53;6.07;;;4.72;;
24650;SDS011;12783;48.824;8.662;2022-07-23T11:53:32;6.85;;;4.40;;
24650;SDS011;12783;48.824;8.662;2022-07-23T11:56:04;9.27;;;5.13;;
24650;SDS011;12783;48.824;8.662;2022-07-23T11:58:33;6.78;;;4.60;;
24650;SDS011;12783;48.824;8.662;2022-07-23T12:01:00;8.05;;;4.80;;
24650;SDS011;12783;48.824;8.662;2022-07-23T12:03:27;8.15;;;4.82;;
24650;SDS011;12783;48.824;8.662;2022-07-23T12:05:58;5.72;;;5.05;;
24650;SDS011;12783;48.824;8.662;2022-07-23T12:08:26;6.95;;;5.20;;
24650;SDS011;12783;48.824;8.662;2022-07-23T12:10:53;8.70;;;5.47;;
24650;SDS011;12783;48.824;8.662;2022-07-23T12:13:20;6.55;;;5.25;;
24650;SDS011;12783;48.824;8.662;2022-07-23T12:15:50;8.18;;;5.25;;
24650;SDS011;12783;48.824;8.662;2022-07-23T12:18:20;8.90;;;5.18;;
24650;SDS011;12783;48.824;8.662;2022-07-23T12:20:54;6.22;;;4.47;;
24650;SDS011;12783;48.824;8.662;2022-07-23T12:23:25;5.75;;;4.80;;
24650;SDS011;12783;48.824;8.662;2022-07-23T12:25:53;6.35;;;4.55;;
24650;SDS011;12783;48.824;8.662;2022-07-23T12:28:22;5.00;;;4.50;;
24650;SDS011;12783;48.824;8.662;2022-07-23T12:30:58;9.38;;;5.03;;
24650;SDS011;12783;48.824;8.662;2022-07-23T12:33:26;8.63;;;5.00;;
24650;SDS011;12783;48.824;8.662;2022-07-23T12:36:05;5.68;;;4.95;;
24650;SDS011;12783;48.824;8.662;2022-07-23T12:38:39;6.40;;;4.70;;
24650;SDS011;12783;48.824;8.662;2022-07-23T12:41:09;7.93;;;4.53;;
24650;SDS011;12783;48.824;8.662;2022-07-23T12:43:38;6.00;;;5.00;;
24650;SDS011;12783;48.824;8.662;2022-07-23T12:46:08;5.90;;;4.57;;
24650;SDS011;12783;48.824;8.662;2022-07-23T12:48:50;9.90;;;5.30;;
24650;SDS011;12783;48.824;8.662;2022-07-23T12:51:25;10.75;;;4.60;;
24650;SDS011;12783;48.824;8.662;2022-07-23T12:53:59;6.13;;;4.10;;
24650;SDS011;12783;48.824;8.662;2022-07-23T12:56:34;5.28;;;4.50;;
24650;SDS011;12783;48.824;8.662;2022-07-23T12:59:14;10.50;;;4.78;;
24650;SDS011;12783;48.824;8.662;2022-07-23T13:01:45;6.10;;;4.90;;
24650;SDS011;12783;48.824;8.662;2022-07-23T13:04:24;9.18;;;5.32;;
24650;SDS011;12783;48.824;8.662;2022-07-23T13:06:53;7.28;;;5.03;;
24650;SDS011;12783;48.824;8.662;2022-07-23T13:09:31;7.80;;;4.78;;
24650;SDS011;12783;48.824;8.662;2022-07-23T13:12:07;8.20;;;4.32;;
24650;SDS011;12783;48.824;8.662;2022-07-23T13:14:36;5.75;;;4.72;;
24650;SDS011;12783;48.824;8.662;2022-07-23T13:17:04;6.32;;;4.70;;
24650;SDS011;12783;48.824;8.662;2022-07-23T13:19:32;6.95;;;4.95;;
24650;SDS011;12783;48.824;8.662;2022-07-23T13:22:00;7.57;;;4.28;;
24650;SDS011;12783;48.824;8.662;2022-07-23T13:27:04;7.45;;;4.30;;
24650;SDS011;12783;48.824;8.662;2022-07-23T13:29:36;6.63;;;4.63;;
24650;SDS011;12783;48.824;8.662;2022-07-23T13:32:03;7.43;;;4.72;;
24650;SDS011;12783;48.824;8.662;2022-07-23T13:34:38;7.95;;;5.22;;
24650;SDS011;12783;48.824;8.662;2022-07-23T13:37:07;4.85;;;3.92;;
24650;SDS011;12783;48.824;8.662;2022-07-23T13:39:34;6.07;;;4.93;;
24650;SDS011;12783;48.824;8.662;2022-07-23T13:42:04;6.35;;;4.55;;
24650;SDS011;12783;48.824;8.662;2022-07-23T13:44:33;4.93;;;4.20;;
24650;SDS011;12783;48.824;8.662;2022-07-23T13:47:01;9.30;;;5.13;;
24650;SDS011;12783;48.824;8.662;2022-07-23T13:49:29;7.13;;;4.95;;
24650;SDS011;12783;48.824;8.662;2022-07-23T13:51:56;5.97;;;4.72;;
24650;SDS011;12783;48.824;8.662;2022-07-23T13:54:24;7.38;;;5.00;;
24650;SDS011;12783;48.824;8.662;2022-07-23T13:56:53;6.10;;;4.85;;
24650;SDS011;12783;48.824;8.662;2022-07-23T13:59:21;6.05;;;4.85;;
24650;SDS011;12783;48.824;8.662;2022-07-23T14:01:52;6.20;;;5.15;;
24650;SDS011;12783;48.824;8.662;2022-07-23T14:04:39;6.65;;;5.05;;
24650;SDS011;12783;48.824;8.662;2022-07-23T14:07:07;6.82;;;5.00;;
24650;SDS011;12783;48.824;8.662;2022-07-23T14:09:35;6.18;;;4.68;;
24650;SDS011;12783;48.824;8.662;2022-07-23T14:12:03;6.72;;;4.72;;
24650;SDS011;12783;48.824;8.662;2022-07-23T14:14:32;9.23;;;5.22;;
24650;SDS011;12783;48.824;8.662;2022-07-23T14:17:02;8.25;;;5.63;;
24650;SDS011;12783;48.824;8.662;2022-07-23T14:19:32;6.97;;;5.35;;
24650;SDS011;12783;48.824;8.662;2022-07-23T14:22:00;8.25;;;5.00;;
24650;SDS011;12783;48.824;8.662;2022-07-23T14:24:27;7.78;;;5.45;;
24650;SDS011;12783;48.824;8.662;2022-07-23T14:27:02;5.97;;;5.10;;
24650;SDS011;12783;48.824;8.662;2022-07-23T14:29:31;7.28;;;5.55;;
24650;SDS011;12783;48.824;8.662;2022-07-23T14:32:00;6.13;;;5.15;;
24650;SDS011;12783;48.824;8.662;2022-07-23T14:34:28;6.78;;;5.35;;
24650;SDS011;12783;48.824;8.662;2022-07-23T14:36:55;8.30;;;5.30;;
24650;SDS011;12783;48.824;8.662;2022-07-23T14:39:23;6.78;;;4.95;;
24650;SDS011;12783;48.824;8.662;2022-07-23T14:41:50;7.38;;;4.80;;
24650;SDS011;12783;48.824;8.662;2022-07-23T14:44:18;6.57;;;5.30;;
24650;SDS011;12783;48.824;8.662;2022-07-23T14:46:45;6.25;;;4.63;;
24650;SDS011;12783;48.824;8.662;2022-07-23T14:49:12;6.00;;;5.05;;
24650;SDS011;12783;48.824;8.662;2022-07-23T14:51:39;12.57;;;5.72;;
24650;SDS011;12783;48.824;8.662;2022-07-23T14:54:08;7.18;;;5.07;;
24650;SDS011;12783;48.824;8.662;2022-07-23T14:56:35;7.90;;;5.55;;
24650;SDS011;12783;48.824;8.662;2022-07-23T14:59:03;6.47;;;5.18;;
24650;SDS011;12783;48.824;8.662;2022-07-23T15:01:31;6.30;;;4.90;;
24650;SDS011;12783;48.824;8.662;2022-07-23T15:04:00;8.68;;;5.18;;
24650;SDS011;12783;48.824;8.662;2022-07-23T15:06:47;8.70;;;5.45;;
24650;SDS011;12783;48.824;8.662;2022-07-23T15:09:14;6.13;;;4.60;;
24650;SDS011;12783;48.824;8.662;2022-07-23T15:11:45;6.78;;;5.10;;
24650;SDS011;12783;48.824;8.662;2022-07-23T15:14:16;8.45;;;5.28;;
24650;SDS011;12783;48.824;8.662;2022-07-23T15:16:54;7.10;;;5.70;;
24650;SDS011;12783;48.824;8.662;2022-07-23T15:19:22;6.45;;;4.80;;
24650;SDS011;12783;48.824;8.662;2022-07-23T15:21:49;7.43;;;5.53;;
24650;SDS011;12783;48.824;8.662;2022-07-23T15:24:16;10.38;;;5.53;;
24650;SDS011;12783;48.824;8.662;2022-07-23T15:26:43;6.03;;;5.43;;
24650;SDS011;12783;48.824;8.662;2022-07-23T15:29:11;10.98;;;5.43;;
24650;SDS011;12783;48.824;8.662;2022-07-23T15:31:38;5.55;;;4.97;;
24650;SDS011;12783;48.824;8.662;2022-07-23T15:34:05;6.57;;;4.75;;
24650;SDS011;12783;48.824;8.662;2022-07-23T15:36:32;7.45;;;4.97;;
24650;SDS011;12783;48.824;8.662;2022-07-23T15:39:01;7.45;;;5.25;;
24650;SDS011;12783;48.824;8.662;2022-07-23T15:41:29;5.90;;;5.30;;
24650;SDS011;12783;48.824;8.662;2022-07-23T15:43:56;9.15;;;5.35;;
24650;SDS011;12783;48.824;8.662;2022-07-23T15:46:23;8.77;;;5.28;;
24650;SDS011;12783;48.824;8.662;2022-07-23T15:48:52;8.35;;;5.57;;
24650;SDS011;12783;48.824;8.662;2022-07-23T15:51:19;7.50;;;4.90;;
24650;SDS011;12783;48.824;8.662;2022-07-23T15:53:46;8.35;;;5.07;;